Terminal Aerodrome Forecast
Issued by NWS Tuscon, AZ

Home | Current Version | Previous Version | Text Only | Print | Product List | Glossary On
Versions: 1 2 3 4 5 6 7 8 9 10 11 12 13 14 15 16 17 18 19 20 21
000
FTUS45 KTWC 191600 AAC
TAFDUG
TAF AMD
KDUG 191609Z 1916/2012 VRB03KT P6SM VCFG FEW002
     FM191800 04005KT P6SM FEW030
     FM200200 03004KT P6SM SKC=

USA.gov is the U.S. government's official web portal to all federal, state and local government web resources and services.